createdAt,value
2018-09-11T00:01:58.522Z,19.70
2018-09-11T00:04:02.423Z,19.70
2018-09-11T00:06:06.424Z,19.70
2018-09-11T00:08:10.440Z,19.70
2018-09-11T00:10:16.082Z,19.60
2018-09-11T00:12:20.111Z,19.60
2018-09-11T00:14:24.458Z,19.60
2018-09-11T00:16:28.748Z,19.60
2018-09-11T00:18:32.750Z,19.50
2018-09-11T00:20:36.666Z,19.50
2018-09-11T00:22:40.707Z,19.40
2018-09-11T00:24:44.665Z,19.30
2018-09-11T00:26:48.653Z,19.20
2018-09-11T00:28:53.184Z,19.20
2018-09-11T00:30:57.808Z,19.20
2018-09-11T00:33:02.709Z,19.20
2018-09-11T00:35:07.007Z,19.20
2018-09-11T00:37:11.077Z,19.20
2018-09-11T00:39:15.190Z,19.20
2018-09-11T00:41:19.598Z,19.20
2018-09-11T00:43:23.578Z,19.30
2018-09-11T00:45:28.336Z,19.30
2018-09-11T00:47:33.799Z,19.40
2018-09-11T00:49:37.891Z,19.40
2018-09-11T00:51:42.657Z,19.40
2018-09-11T00:53:47.006Z,19.40
2018-09-11T00:55:51.036Z,19.30
2018-09-11T00:57:56.007Z,19.20
2018-09-11T01:00:00.516Z,19.20
2018-09-11T01:02:05.488Z,19.20
2018-09-11T01:04:09.498Z,19.30
2018-09-11T01:06:14.621Z,19.40
2018-09-11T01:08:18.640Z,19.40
2018-09-11T01:10:22.609Z,19.30
2018-09-11T01:12:26.911Z,19.30
2018-09-11T01:14:30.931Z,19.30
2018-09-11T01:16:34.899Z,19.40
2018-09-11T01:18:40.167Z,19.40
2018-09-11T01:20:45.433Z,19.30
2018-09-11T01:22:51.184Z,19.30
2018-09-11T01:24:56.873Z,19.30
2018-09-11T01:27:02.291Z,19.20
2018-09-11T01:29:07.702Z,19.20
2018-09-11T01:31:15.898Z,19.10
2018-09-11T01:33:20.816Z,19.00
2018-09-11T01:35:25.929Z,19.00
2018-09-11T01:37:30.389Z,18.90
2018-09-11T01:39:35.271Z,18.80
2018-09-11T01:41:40.807Z,18.70
2018-09-11T01:43:44.842Z,18.70
2018-09-11T01:45:49.624Z,18.60
2018-09-11T01:47:54.221Z,18.70
2018-09-11T01:50:01.121Z,18.70
2018-09-11T01:52:05.167Z,18.40
2018-09-11T01:54:09.799Z,17.90
2018-09-11T01:56:14.811Z,17.80
2018-09-11T01:58:19.299Z,17.60
2018-09-11T02:00:25.175Z,17.60
2018-09-11T02:02:29.548Z,17.90
2018-09-11T02:04:33.511Z,18.10
2018-09-11T02:06:37.518Z,18.20
2018-09-11T02:08:41.575Z,18.20
2018-09-11T02:10:45.839Z,18.20
2018-09-11T02:12:49.939Z,18.20
2018-09-11T02:14:54.219Z,18.10
2018-09-11T02:16:58.147Z,18.10
2018-09-11T02:19:02.327Z,18.20
2018-09-11T02:21:06.876Z,18.20
2018-09-11T02:23:10.830Z,18.20
2018-09-11T02:25:16.110Z,18.20
2018-09-11T02:27:20.424Z,18.20
2018-09-11T02:29:24.403Z,18.20
2018-09-11T02:31:28.427Z,18.20
2018-09-11T02:33:32.509Z,18.10
2018-09-11T02:35:39.892Z,18.10
2018-09-11T02:37:43.852Z,18.10
2018-09-11T02:39:48.108Z,18.10
2018-09-11T02:41:52.039Z,18.10
2018-09-11T02:43:56.064Z,18.20
2018-09-11T02:46:00.491Z,18.10
2018-09-11T02:48:04.770Z,18.00
2018-09-11T02:50:09.031Z,18.00
2018-09-11T02:52:14.592Z,18.00
2018-09-11T02:54:18.555Z,18.00
2018-09-11T02:56:23.356Z,18.00
2018-09-11T02:58:27.818Z,18.00
2018-09-11T03:00:31.820Z,18.00
2018-09-11T03:02:35.886Z,18.00
2018-09-11T03:04:41.147Z,18.00
2018-09-11T03:06:45.188Z,18.00
2018-09-11T03:08:49.141Z,17.90
2018-09-11T03:10:53.532Z,17.90
2018-09-11T03:12:58.928Z,17.90
2018-09-11T03:15:03.052Z,17.80
2018-09-11T03:17:08.420Z,17.70
2018-09-11T03:19:12.379Z,17.70
2018-09-11T03:21:16.296Z,17.60
2018-09-11T03:23:21.608Z,17.60
2018-09-11T03:25:25.547Z,17.60
2018-09-11T03:27:30.848Z,17.60
2018-09-11T03:29:34.783Z,17.60
2018-09-11T03:31:38.743Z,17.60
2018-09-11T03:33:42.788Z,17.50
2018-09-11T03:35:47.023Z,17.50
2018-09-11T03:37:51.040Z,17.50
2018-09-11T03:39:55.947Z,17.50
2018-09-11T03:42:00.268Z,17.60
2018-09-11T03:44:05.067Z,17.60
2018-09-11T03:46:09.002Z,17.60
2018-09-11T03:48:13.479Z,17.50
2018-09-11T03:50:18.123Z,17.50
2018-09-11T03:52:22.214Z,17.50
2018-09-11T03:54:26.377Z,17.40
2018-09-11T03:56:30.458Z,17.40
2018-09-11T03:58:34.546Z,17.40
2018-09-11T04:00:39.611Z,17.30
2018-09-11T04:02:43.576Z,17.30
2018-09-11T04:04:47.749Z,17.30
2018-09-11T04:06:52.734Z,17.20
2018-09-11T04:08:56.668Z,17.20
2018-09-11T04:11:00.648Z,17.10
2018-09-11T04:13:04.966Z,17.10
2018-09-11T04:15:08.900Z,17.10
2018-09-11T04:17:12.839Z,17.10
2018-09-11T04:19:16.803Z,17.00
2018-09-11T04:21:20.751Z,17.00
2018-09-11T04:23:24.786Z,17.10
2018-09-11T04:25:29.301Z,17.10
2018-09-11T04:27:33.351Z,17.00
2018-09-11T04:29:37.274Z,17.00
2018-09-11T04:31:41.717Z,16.90
2018-09-11T04:33:45.969Z,16.80
2018-09-11T04:35:50.011Z,16.80
2018-09-11T04:37:58.147Z,16.80
2018-09-11T04:40:02.204Z,16.80
2018-09-11T04:42:06.153Z,16.80
2018-09-11T04:44:10.111Z,16.80
2018-09-11T04:46:14.533Z,16.70
2018-09-11T04:48:18.534Z,16.70
2018-09-11T04:50:22.933Z,16.70
2018-09-11T04:52:27.512Z,16.70
2018-09-11T04:54:31.470Z,16.60
2018-09-11T04:56:37.936Z,16.60
2018-09-11T04:58:42.031Z,16.60
2018-09-11T05:00:47.252Z,16.60
2018-09-11T05:02:51.525Z,16.60
2018-09-11T05:04:55.512Z,16.60
2018-09-11T05:06:59.645Z,16.50
2018-09-11T05:09:04.663Z,16.40
2018-09-11T05:11:10.341Z,16.40
2018-09-11T05:13:14.383Z,16.40
2018-09-11T05:15:21.017Z,16.40
2018-09-11T05:17:25.027Z,16.40
2018-09-11T05:19:29.004Z,16.50
2018-09-11T05:21:33.267Z,16.40
2018-09-11T05:23:43.024Z,16.40
2018-09-11T05:25:47.516Z,16.40
2018-09-11T05:27:53.300Z,16.40
2018-09-11T05:29:57.406Z,16.40
2018-09-11T05:32:07.106Z,16.40
2018-09-11T05:34:15.600Z,16.50
2018-09-11T05:36:19.664Z,16.60
2018-09-11T05:38:23.621Z,16.60
2018-09-11T05:40:28.119Z,16.70
2018-09-11T05:42:32.087Z,16.90
2018-09-11T05:44:40.663Z,16.90
2018-09-11T05:46:45.537Z,17.10
2018-09-11T05:48:50.934Z,17.30
2018-09-11T05:50:54.930Z,17.40
2018-09-11T05:53:01.251Z,17.60
2018-09-11T05:55:06.417Z,17.80
2018-09-11T05:57:12.489Z,17.90
2018-09-11T05:59:17.820Z,18.10
2018-09-11T06:01:25.487Z,18.30
2018-09-11T06:03:30.232Z,18.50
2018-09-11T06:05:35.336Z,18.70
2018-09-11T06:07:39.293Z,18.90
2018-09-11T06:09:43.394Z,19.20
2018-09-11T06:11:47.823Z,19.30
2018-09-11T06:13:54.361Z,19.40
2018-09-11T06:15:58.701Z,19.60
2018-09-11T06:18:03.759Z,19.80
2018-09-11T06:20:08.231Z,20.00
2018-09-11T06:22:12.200Z,20.10
2018-09-11T06:24:17.249Z,20.40
2018-09-11T06:26:22.622Z,20.50
2018-09-11T06:28:30.514Z,20.80
2018-09-11T06:30:34.528Z,21.00
2018-09-11T06:32:39.770Z,21.20
2018-09-11T06:34:47.581Z,21.40
2018-09-11T06:36:51.828Z,21.70
2018-09-11T06:38:55.788Z,21.80
2018-09-11T06:40:59.892Z,21.90
2018-09-11T06:43:10.975Z,22.10
2018-09-11T06:45:16.484Z,22.10
2018-09-11T06:47:21.256Z,22.10
2018-09-11T06:49:25.523Z,22.20
2018-09-11T06:51:31.874Z,22.20
2018-09-11T06:53:40.411Z,22.20
2018-09-11T06:55:52.409Z,22.30
2018-09-11T06:57:58.299Z,22.50
2018-09-11T07:00:02.325Z,22.60
2018-09-11T07:02:07.379Z,22.70
2018-09-11T07:04:11.340Z,22.90
2018-09-11T07:06:16.235Z,23.00
2018-09-11T07:08:24.810Z,23.10
2018-09-11T07:10:29.189Z,23.30
2018-09-11T07:12:33.690Z,23.40
2018-09-11T07:14:38.028Z,23.60
2018-09-11T07:16:42.934Z,23.70
2018-09-11T07:18:47.628Z,23.80
2018-09-11T07:20:54.991Z,24.10
2018-09-11T07:22:59.628Z,24.20
2018-09-11T07:25:05.496Z,24.40
2018-09-11T07:27:09.795Z,24.70
2018-09-11T07:29:13.908Z,24.80
2018-09-11T07:31:17.969Z,25.00
2018-09-11T07:33:23.360Z,25.10
2018-09-11T07:35:27.463Z,25.00
2018-09-11T07:37:33.371Z,25.20
2018-09-11T07:39:37.733Z,25.30
2018-09-11T07:41:45.599Z,25.20
2018-09-11T07:43:49.613Z,25.40
2018-09-11T07:45:54.511Z,25.60
2018-09-11T07:47:59.178Z,25.90
2018-09-11T07:50:03.264Z,26.00
2018-09-11T07:52:08.911Z,26.00
2018-09-11T07:54:13.924Z,25.80
2018-09-11T07:56:19.282Z,25.80
2018-09-11T07:58:24.592Z,25.80
2018-09-11T08:00:28.836Z,25.50
2018-09-11T08:02:32.823Z,25.50
2018-09-11T08:04:42.576Z,25.50
2018-09-11T08:06:48.277Z,25.30
2018-09-11T08:08:52.332Z,25.20
2018-09-11T08:10:56.383Z,25.00
2018-09-11T08:13:02.055Z,25.00
2018-09-11T08:15:07.206Z,25.10
2018-09-11T08:17:11.560Z,25.20
2018-09-11T08:19:17.409Z,25.20
2018-09-11T08:21:23.782Z,25.20
2018-09-11T08:23:28.272Z,25.30
2018-09-11T08:25:33.863Z,25.40
2018-09-11T08:27:39.032Z,25.30
2018-09-11T08:29:44.415Z,25.50
2018-09-11T08:31:49.673Z,25.60
2018-09-11T08:33:54.766Z,25.70
2018-09-11T08:36:01.139Z,25.70
2018-09-11T08:38:07.242Z,25.60
2018-09-11T08:40:18.135Z,25.70
2018-09-11T08:42:22.455Z,25.80
2018-09-11T08:44:28.311Z,25.90
2018-09-11T08:46:32.419Z,26.10
2018-09-11T08:48:37.746Z,26.20
2018-09-11T08:50:42.063Z,26.30
2018-09-11T08:52:47.091Z,26.30
2018-09-11T08:54:51.368Z,26.30
2018-09-11T08:56:55.759Z,26.40
2018-09-11T08:58:59.678Z,26.30
2018-09-11T09:01:03.704Z,26.40
2018-09-11T09:03:07.771Z,26.50
2018-09-11T09:05:11.781Z,26.60
2018-09-11T09:07:16.025Z,26.60
2018-09-11T09:09:20.019Z,26.70
2018-09-11T09:11:24.043Z,26.80
2018-09-11T09:13:33.549Z,26.90
2018-09-11T09:15:39.296Z,27.00
2018-09-11T09:17:44.036Z,27.10
2018-09-11T09:19:48.355Z,27.10
2018-09-11T09:21:52.351Z,27.10
2018-09-11T09:23:58.528Z,27.30
2018-09-11T09:26:02.819Z,27.40
2018-09-11T09:28:17.618Z,27.40
2018-09-11T09:30:22.106Z,27.40
2018-09-11T09:32:27.040Z,27.60
2018-09-11T09:34:32.270Z,27.60
2018-09-11T09:36:37.535Z,27.50
2018-09-11T09:38:48.611Z,27.40
2018-09-11T09:40:57.069Z,27.50
2018-09-11T09:43:22.681Z,27.60
2018-09-11T09:45:28.312Z,27.50
2018-09-11T09:47:33.301Z,27.50
2018-09-11T09:49:38.762Z,27.70
2018-09-11T09:51:46.508Z,27.90
2018-09-11T09:53:52.531Z,28.10
2018-09-11T09:56:03.962Z,28.20
2018-09-11T09:58:15.298Z,28.20
2018-09-11T10:00:41.872Z,28.30
2018-09-11T10:02:56.815Z,28.30
2018-09-11T10:05:04.877Z,28.20
2018-09-11T10:07:09.647Z,28.00
2018-09-11T10:09:17.099Z,28.00
2018-09-11T10:11:28.476Z,27.80
2018-09-11T10:13:35.293Z,28.00
2018-09-11T10:15:41.726Z,28.00
2018-09-11T10:17:49.841Z,28.20
2018-09-11T10:19:55.658Z,28.40
2018-09-11T10:22:03.433Z,28.60
2018-09-11T10:24:22.315Z,28.60
2018-09-11T10:26:33.211Z,28.60
2018-09-11T10:28:43.994Z,28.50
2018-09-11T10:30:50.817Z,28.60
2018-09-11T10:32:57.335Z,28.70
2018-09-11T10:35:09.308Z,28.80
2018-09-11T10:37:14.877Z,28.90
2018-09-11T10:41:49.287Z,29.30
2018-09-11T10:43:58.293Z,29.30
2018-09-11T10:46:05.774Z,29.50
2018-09-11T10:48:12.968Z,29.50
2018-09-11T10:50:27.270Z,29.40
2018-09-11T10:52:33.283Z,29.50
2018-09-11T10:54:38.601Z,29.70
2018-09-11T10:56:44.649Z,29.70
2018-09-11T10:58:48.860Z,29.70
2018-09-11T11:00:58.003Z,29.90
2018-09-11T11:03:11.790Z,29.90
2018-09-11T11:05:17.260Z,30.00
2018-09-11T11:07:27.510Z,29.90
2018-09-11T11:09:33.502Z,29.80
2018-09-11T11:11:38.979Z,29.90
2018-09-11T11:13:43.646Z,30.00
2018-09-11T11:16:01.803Z,30.10
2018-09-11T11:18:17.015Z,30.10
2018-09-11T11:20:28.917Z,30.00
2018-09-11T11:22:33.877Z,30.00
2018-09-11T11:24:42.542Z,30.10
2018-09-11T11:26:47.410Z,30.00
2018-09-11T11:28:56.646Z,30.10
2018-09-11T11:31:06.993Z,30.00
2018-09-11T11:33:13.780Z,30.00
2018-09-11T11:35:25.033Z,30.30
2018-09-11T11:37:41.334Z,30.40
2018-09-11T11:39:45.599Z,30.50
2018-09-11T11:41:53.770Z,30.70
2018-09-11T11:43:59.466Z,30.70
2018-09-11T11:46:14.000Z,30.90
2018-09-11T11:48:34.422Z,30.60
2018-09-11T11:50:51.406Z,30.40
2018-09-11T11:52:57.074Z,30.40
2018-09-11T11:55:10.582Z,30.40
2018-09-11T11:57:22.342Z,30.30
2018-09-11T11:59:35.341Z,30.30
2018-09-11T12:01:44.846Z,30.40
2018-09-11T12:03:54.186Z,30.70
2018-09-11T12:06:04.022Z,31.00
2018-09-11T12:08:11.671Z,31.20
2018-09-11T12:10:27.061Z,31.20
2018-09-11T12:12:37.971Z,31.40
2018-09-11T12:14:54.537Z,31.50
2018-09-11T12:17:05.691Z,31.90
2018-09-11T12:21:56.719Z,31.80
2018-09-11T12:26:22.752Z,31.50
2018-09-11T12:28:27.467Z,31.30
2018-09-11T12:30:33.547Z,31.40
2018-09-11T12:32:37.575Z,31.30
2018-09-11T12:34:41.955Z,31.40
2018-09-11T12:36:46.993Z,31.50
2018-09-11T12:38:53.458Z,31.80
2018-09-11T12:41:01.490Z,31.90
2018-09-11T12:43:06.722Z,32.10
2018-09-11T12:45:17.130Z,32.20
2018-09-11T12:47:23.664Z,32.20
2018-09-11T12:49:27.966Z,32.00
2018-09-11T12:51:32.026Z,31.90
2018-09-11T12:53:36.284Z,31.90
2018-09-11T12:55:41.773Z,31.70
2018-09-11T12:57:45.719Z,31.60
2018-09-11T12:59:51.617Z,31.50
2018-09-11T13:01:56.433Z,31.60
2018-09-11T13:04:01.211Z,31.90
2018-09-11T13:06:08.241Z,32.30
2018-09-11T13:08:14.404Z,32.40
2018-09-11T13:10:20.584Z,32.50
2018-09-11T13:12:26.454Z,32.60
2018-09-11T13:14:33.265Z,32.60
2018-09-11T13:16:37.276Z,32.50
2018-09-11T13:18:41.674Z,32.50
2018-09-11T13:20:47.633Z,32.60
2018-09-11T13:22:52.715Z,32.60
2018-09-11T13:25:00.066Z,32.60
2018-09-11T13:27:04.676Z,32.70
2018-09-11T13:29:13.114Z,32.70
2018-09-11T13:31:17.790Z,32.80
2018-09-11T13:33:23.076Z,32.80
2018-09-11T13:35:27.415Z,33.00
2018-09-11T13:37:32.678Z,33.00
2018-09-11T13:39:36.748Z,33.00
2018-09-11T13:41:40.745Z,33.10
2018-09-11T13:43:45.199Z,33.10
2018-09-11T13:45:50.862Z,33.40
2018-09-11T13:47:55.778Z,33.50
2018-09-11T13:50:02.035Z,33.40
2018-09-11T13:52:06.541Z,33.30
2018-09-11T13:54:10.969Z,33.20
2018-09-11T13:56:15.078Z,33.30
2018-09-11T13:58:26.048Z,33.20
2018-09-11T14:03:03.902Z,33.20
2018-09-11T14:14:13.214Z,33.40
2018-09-11T14:21:55.389Z,33.20
2018-09-11T14:24:10.102Z,33.60
2018-09-11T14:30:01.796Z,34.20
2018-09-11T14:32:31.579Z,34.30
2018-09-11T14:34:49.749Z,34.30
2018-09-11T14:37:13.714Z,34.10
2018-09-11T14:40:20.531Z,34.20
2018-09-11T14:43:48.955Z,34.50
2018-09-11T14:46:28.055Z,34.60
2018-09-11T14:49:05.377Z,34.90
2018-09-11T14:58:03.395Z,35.40
2018-09-11T15:03:42.776Z,35.60
2018-09-11T15:11:52.268Z,36.00
2018-09-11T15:17:20.296Z,36.20
2018-09-11T15:20:13.466Z,36.10
2018-09-11T15:22:32.483Z,36.00
2018-09-11T15:24:57.745Z,36.10
2018-09-11T15:37:38.588Z,36.40
2018-09-11T15:43:04.524Z,36.60
2018-09-11T15:45:50.978Z,36.60
2018-09-11T15:48:20.331Z,36.40
2018-09-11T15:50:57.200Z,36.40
2018-09-11T15:58:53.144Z,36.10
2018-09-11T16:01:41.060Z,36.10
2018-09-11T16:04:31.398Z,35.80
2018-09-11T16:10:34.115Z,36.10
2018-09-11T16:13:04.138Z,35.70
2018-09-11T16:22:16.535Z,35.30
2018-09-11T16:25:30.229Z,35.20
2018-09-11T16:33:11.608Z,34.60
2018-09-11T16:35:31.298Z,34.60
2018-09-11T16:37:58.796Z,34.30
2018-09-11T16:40:50.761Z,34.10
2018-09-11T16:43:29.364Z,34.00
2018-09-11T16:51:42.359Z,34.00
2018-09-11T16:54:14.465Z,33.30
2018-09-11T16:56:52.959Z,32.60
2018-09-11T17:05:06.642Z,30.90
2018-09-11T17:26:48.889Z,29.40
2018-09-11T17:30:03.484Z,29.20
2018-09-11T17:41:16.664Z,28.70
2018-09-11T17:50:46.390Z,28.40
2018-09-11T18:05:50.506Z,27.80
2018-09-11T18:08:38.346Z,27.70
2018-09-11T18:19:41.992Z,27.50
2018-09-11T18:22:31.026Z,27.30
2018-09-11T18:25:12.728Z,27.10
2018-09-11T18:34:24.655Z,26.80
2018-09-11T18:37:30.692Z,26.70
2018-09-11T18:43:09.232Z,26.50
2018-09-11T18:50:23.353Z,26.30
2018-09-11T18:53:12.911Z,26.30
2018-09-11T18:58:56.729Z,26.10
2018-09-11T19:01:17.681Z,26.10
2018-09-11T19:06:43.554Z,25.90
2018-09-11T19:09:57.179Z,25.80
2018-09-11T19:18:19.460Z,25.60
2018-09-11T19:23:10.622Z,25.60
2018-09-11T19:31:10.277Z,25.60
2018-09-11T19:33:44.480Z,25.50
2018-09-11T19:36:22.124Z,25.40
2018-09-11T19:51:38.622Z,25.00
2018-09-11T19:54:23.934Z,24.80
2018-09-11T19:56:50.161Z,24.70
2018-09-11T20:02:28.392Z,24.50
2018-09-11T20:07:46.545Z,24.30
2018-09-11T20:10:00.641Z,24.20
2018-09-11T20:12:31.669Z,24.00
2018-09-11T20:15:07.680Z,23.90
2018-09-11T20:17:40.414Z,23.80
2018-09-11T20:19:51.561Z,23.70
2018-09-11T20:22:52.498Z,23.70
2018-09-11T20:28:29.723Z,23.50
2018-09-11T20:31:11.030Z,23.50
2018-09-11T20:33:26.117Z,23.50
2018-09-11T20:36:09.998Z,23.50
2018-09-11T20:38:27.766Z,23.50
2018-09-11T20:41:05.218Z,23.40
2018-09-11T20:43:25.577Z,23.40
2018-09-11T20:45:38.560Z,23.40
2018-09-11T20:48:01.410Z,23.20
2018-09-11T20:52:56.992Z,23.10
2018-09-11T20:58:01.843Z,23.00
2018-09-11T21:00:24.027Z,23.00
2018-09-11T21:03:23.352Z,23.00
2018-09-11T21:06:06.559Z,23.00
2018-09-11T21:10:18.263Z,23.00
2018-09-11T21:12:40.911Z,22.90
2018-09-11T21:15:16.136Z,22.80
2018-09-11T21:17:40.160Z,22.80
2018-09-11T21:24:56.193Z,22.80
2018-09-11T21:36:56.155Z,22.30
2018-09-11T21:50:31.846Z,22.00
2018-09-11T22:00:58.583Z,21.70
2018-09-11T22:03:56.695Z,21.60
2018-09-11T22:06:20.122Z,21.60
2018-09-11T22:11:47.168Z,21.50
2018-09-11T22:14:44.695Z,21.50
2018-09-11T22:17:03.731Z,21.50
2018-09-11T22:25:01.652Z,21.70
2018-09-11T22:27:18.591Z,21.70
2018-09-11T22:29:39.014Z,21.80
2018-09-11T22:32:21.581Z,21.80
2018-09-11T22:34:41.412Z,21.90
2018-09-11T22:37:28.470Z,21.90
2018-09-11T22:39:44.503Z,21.90
2018-09-11T22:44:50.764Z,21.90
2018-09-11T22:47:12.112Z,21.80
2018-09-11T22:54:33.547Z,21.60
2018-09-11T23:02:47.430Z,21.50
2018-09-11T23:05:03.511Z,21.50
2018-09-11T23:10:15.977Z,21.50
2018-09-11T23:18:25.499Z,21.20
2018-09-11T23:21:06.374Z,21.20
2018-09-11T23:28:35.670Z,21.00
2018-09-11T23:31:13.635Z,21.00
2018-09-11T23:33:34.094Z,20.90
2018-09-11T23:39:03.214Z,20.80
2018-09-11T23:43:48.100Z,20.70
2018-09-11T23:45:54.721Z,20.70
2018-09-11T23:56:33.341Z,20.60
2018-09-11T23:59:06.692Z,20.60
